createdAt,value
2018-03-18T00:01:20.859Z,9.57
2018-03-18T00:03:50.569Z,8.93
2018-03-18T00:06:20.161Z,10.82
2018-03-18T00:08:49.146Z,6.72
2018-03-18T00:11:18.074Z,5.70
2018-03-18T00:13:46.971Z,9.85
2018-03-18T00:16:15.911Z,12.20
2018-03-18T00:18:44.886Z,11.63
2018-03-18T00:21:15.340Z,9.65
2018-03-18T00:23:44.526Z,15.30
2018-03-18T00:26:13.535Z,17.27
2018-03-18T00:28:42.484Z,12.02
2018-03-18T00:31:11.435Z,10.68
2018-03-18T00:33:40.403Z,17.23
2018-03-18T00:36:09.330Z,9.85
2018-03-18T00:38:38.252Z,8.32
2018-03-18T00:41:07.143Z,12.10
2018-03-18T00:43:36.088Z,11.65
2018-03-18T00:46:05.820Z,8.25
2018-03-18T00:48:34.786Z,11.65
2018-03-18T00:51:03.717Z,11.12
2018-03-18T00:53:32.649Z,12.70
2018-03-18T00:56:01.635Z,6.55
2018-03-18T00:58:30.543Z,7.37
2018-03-18T01:00:59.444Z,11.52
2018-03-18T01:03:28.376Z,15.63
2018-03-18T01:05:57.392Z,9.05
2018-03-18T01:08:26.384Z,9.52
2018-03-18T01:10:55.303Z,7.60
2018-03-18T01:13:24.212Z,10.80
2018-03-18T01:15:53.160Z,9.48
2018-03-18T01:18:22.066Z,8.93
2018-03-18T01:20:51.071Z,5.37
2018-03-18T01:23:20.044Z,11.40
2018-03-18T01:25:48.944Z,10.98
2018-03-18T01:28:17.848Z,9.32
2018-03-18T01:30:46.781Z,6.50
2018-03-18T01:33:15.674Z,6.03
2018-03-18T01:35:44.625Z,6.37
2018-03-18T01:38:13.516Z,9.90
2018-03-18T01:40:42.547Z,9.23
2018-03-18T01:43:11.543Z,7.15
2018-03-18T01:45:40.405Z,5.50
2018-03-18T01:48:09.332Z,7.05
2018-03-18T01:50:38.273Z,9.18
2018-03-18T01:53:12.971Z,9.57
2018-03-18T01:55:41.862Z,6.25
2018-03-18T01:58:10.768Z,5.47
2018-03-18T02:00:39.708Z,4.62
2018-03-18T02:03:08.612Z,7.75
2018-03-18T02:05:37.663Z,6.50
2018-03-18T02:08:06.554Z,6.72
2018-03-18T02:10:35.512Z,9.75
2018-03-18T02:13:04.398Z,6.00
2018-03-18T02:15:33.359Z,8.82
2018-03-18T02:18:02.252Z,10.27
2018-03-18T02:20:31.196Z,7.78
2018-03-18T02:23:00.238Z,7.78
2018-03-18T02:25:29.126Z,7.18
2018-03-18T02:27:58.040Z,11.77
2018-03-18T02:30:26.963Z,7.35
2018-03-18T02:32:55.871Z,5.28
2018-03-18T02:35:24.805Z,8.10
2018-03-18T02:37:53.753Z,7.47
2018-03-18T02:40:22.669Z,8.23
2018-03-18T02:42:51.598Z,6.28
2018-03-18T02:45:20.511Z,6.15
2018-03-18T02:47:49.445Z,8.43
2018-03-18T02:50:18.429Z,5.15
2018-03-18T02:52:47.334Z,4.35
2018-03-18T02:55:16.251Z,8.60
2018-03-18T02:57:45.190Z,5.28
2018-03-18T03:00:14.108Z,5.95
2018-03-18T03:02:43.027Z,5.10
2018-03-18T03:05:11.931Z,7.72
2018-03-18T03:07:40.915Z,12.10
2018-03-18T03:10:09.812Z,8.35
2018-03-18T03:12:38.744Z,7.25
2018-03-18T03:15:07.631Z,8.95
2018-03-18T03:17:36.554Z,6.95
2018-03-18T03:20:05.540Z,6.75
2018-03-18T03:22:34.442Z,7.75
2018-03-18T03:25:03.379Z,6.25
2018-03-18T03:27:32.349Z,6.10
2018-03-18T03:30:01.355Z,5.50
2018-03-18T03:32:30.271Z,6.95
2018-03-18T03:34:59.206Z,6.90
2018-03-18T03:37:28.251Z,4.60
2018-03-18T03:39:57.206Z,8.30
2018-03-18T03:42:26.098Z,5.07
2018-03-18T03:44:55.047Z,9.45
2018-03-18T03:47:23.985Z,8.27
2018-03-18T03:49:52.891Z,7.40
2018-03-18T03:52:22.028Z,6.50
2018-03-18T03:54:50.937Z,8.43
2018-03-18T03:57:19.826Z,6.80
2018-03-18T03:59:48.762Z,7.72
2018-03-18T04:02:17.674Z,8.60
2018-03-18T04:04:46.570Z,8.68
2018-03-18T04:07:15.557Z,8.00
2018-03-18T04:09:44.488Z,7.75
2018-03-18T04:12:13.391Z,8.77
2018-03-18T04:14:42.356Z,7.03
2018-03-18T04:17:11.251Z,8.20
2018-03-18T04:19:40.190Z,6.68
2018-03-18T04:22:09.136Z,8.32
2018-03-18T04:24:38.036Z,3.62
2018-03-18T04:27:06.986Z,6.35
2018-03-18T04:29:35.897Z,7.55
2018-03-18T04:32:04.838Z,9.73
2018-03-18T04:34:33.909Z,7.80
2018-03-18T04:37:02.820Z,7.10
2018-03-18T04:39:31.823Z,4.20
2018-03-18T04:42:00.760Z,4.10
2018-03-18T04:44:29.655Z,8.95
2018-03-18T04:46:58.596Z,5.57
2018-03-18T04:49:27.523Z,5.28
2018-03-18T04:51:56.470Z,4.62
2018-03-18T04:54:25.387Z,7.22
2018-03-18T04:56:54.328Z,8.45
2018-03-18T04:59:23.348Z,6.97
2018-03-18T05:01:52.292Z,6.32
2018-03-18T05:04:21.192Z,6.15
2018-03-18T05:06:50.123Z,7.72
2018-03-18T05:09:19.028Z,5.82
2018-03-18T05:11:47.985Z,5.35
2018-03-18T05:14:16.910Z,7.65
2018-03-18T05:16:45.813Z,4.10
2018-03-18T05:19:14.726Z,5.62
2018-03-18T05:21:43.643Z,8.43
2018-03-18T05:24:12.575Z,4.32
2018-03-18T05:26:41.516Z,4.00
2018-03-18T05:29:10.431Z,7.30
2018-03-18T05:31:39.381Z,8.10
2018-03-18T05:34:08.292Z,4.78
2018-03-18T05:36:37.201Z,5.18
2018-03-18T05:39:06.154Z,7.28
2018-03-18T05:41:35.072Z,7.00
2018-03-18T05:44:04.004Z,7.12
2018-03-18T05:46:32.924Z,10.98
2018-03-18T05:49:01.863Z,8.27
2018-03-18T05:51:30.830Z,10.73
2018-03-18T05:53:59.758Z,6.00
2018-03-18T05:56:28.660Z,8.35
2018-03-18T05:58:57.595Z,5.35
2018-03-18T06:01:26.504Z,5.65
2018-03-18T06:03:55.591Z,6.50
2018-03-18T06:06:24.503Z,5.97
2018-03-18T06:08:53.404Z,6.43
2018-03-18T06:11:22.360Z,5.62
2018-03-18T06:13:51.260Z,5.20
2018-03-18T06:16:20.175Z,5.40
2018-03-18T06:18:49.182Z,4.68
2018-03-18T06:21:18.061Z,4.95
2018-03-18T06:23:46.964Z,6.32
2018-03-18T06:26:15.896Z,7.12
2018-03-18T06:28:45.002Z,6.00
2018-03-18T06:31:13.925Z,6.60
2018-03-18T06:33:42.845Z,6.93
2018-03-18T06:36:11.742Z,8.23
2018-03-18T06:38:40.683Z,6.32
2018-03-18T06:41:09.749Z,6.40
2018-03-18T06:43:38.676Z,8.80
2018-03-18T06:46:07.591Z,8.60
2018-03-18T06:48:36.498Z,8.25
2018-03-18T06:51:05.424Z,7.00
2018-03-18T06:53:34.416Z,9.68
2018-03-18T06:56:03.327Z,7.43
2018-03-18T06:58:32.240Z,6.95
2018-03-18T07:01:01.234Z,5.95
2018-03-18T07:03:30.325Z,5.65
2018-03-18T07:05:59.228Z,5.80
2018-03-18T07:08:28.157Z,9.20
2018-03-18T07:10:57.087Z,4.15
2018-03-18T07:13:26.020Z,4.75
2018-03-18T07:15:54.966Z,5.22
2018-03-18T07:18:23.896Z,7.60
2018-03-18T07:20:52.822Z,6.20
2018-03-18T07:23:21.785Z,7.85
2018-03-18T07:25:50.772Z,5.47
2018-03-18T07:28:19.695Z,8.35
2018-03-18T07:30:48.601Z,6.10
2018-03-18T07:33:17.557Z,6.37
2018-03-18T07:35:46.485Z,6.37
2018-03-18T07:38:15.792Z,9.15
2018-03-18T07:40:44.719Z,10.30
2018-03-18T07:43:13.636Z,10.43
2018-03-18T07:45:42.582Z,9.52
2018-03-18T07:48:11.498Z,8.45
2018-03-18T07:50:41.319Z,9.30
2018-03-18T07:53:10.224Z,8.77
2018-03-18T07:55:39.111Z,9.45
2018-03-18T07:58:08.054Z,7.07
2018-03-18T08:00:36.977Z,10.82
2018-03-18T08:03:05.875Z,6.03
2018-03-18T08:05:34.846Z,9.00
2018-03-18T08:08:03.791Z,8.20
2018-03-18T08:10:32.800Z,9.57
2018-03-18T08:13:01.723Z,9.50
2018-03-18T08:15:30.646Z,8.57
2018-03-18T08:17:59.581Z,9.60
2018-03-18T08:20:28.475Z,9.15
2018-03-18T08:22:57.423Z,10.57
2018-03-18T08:25:26.340Z,6.97
2018-03-18T08:27:55.279Z,9.68
2018-03-18T08:30:24.224Z,8.70
2018-03-18T08:32:53.136Z,14.25
2018-03-18T08:35:22.083Z,7.75
2018-03-18T08:37:50.970Z,6.87
2018-03-18T08:40:19.920Z,9.18
2018-03-18T08:42:48.868Z,10.93
2018-03-18T08:45:17.788Z,7.05
2018-03-18T08:47:46.695Z,16.77
2018-03-18T08:50:15.685Z,10.50
2018-03-18T08:52:44.606Z,15.90
2018-03-18T08:55:13.550Z,8.15
2018-03-18T08:57:42.469Z,8.18
2018-03-18T09:00:11.416Z,12.65
2018-03-18T09:02:40.710Z,9.90
2018-03-18T09:05:09.781Z,12.13
2018-03-18T09:07:38.722Z,9.77
2018-03-18T09:10:07.707Z,10.73
2018-03-18T09:12:36.610Z,7.62
2018-03-18T09:15:05.544Z,6.22
2018-03-18T09:17:34.471Z,6.50
2018-03-18T09:20:03.433Z,8.75
2018-03-18T09:22:32.412Z,8.85
2018-03-18T09:25:01.311Z,9.25
2018-03-18T09:27:30.221Z,7.57
2018-03-18T09:29:59.177Z,7.37
2018-03-18T09:32:28.076Z,7.78
2018-03-18T09:34:57.005Z,9.20
2018-03-18T09:37:26.015Z,11.12
2018-03-18T09:39:54.945Z,10.90
2018-03-18T09:42:23.865Z,17.15
2018-03-18T09:44:52.803Z,12.48
2018-03-18T09:47:21.765Z,7.30
2018-03-18T09:49:50.739Z,7.50
2018-03-18T09:52:19.685Z,9.35
2018-03-18T09:54:48.626Z,6.40
2018-03-18T09:57:17.540Z,6.80
2018-03-18T09:59:46.513Z,13.88
2018-03-18T10:02:15.421Z,7.28
2018-03-18T10:04:44.336Z,8.05
2018-03-18T10:07:13.559Z,10.30
2018-03-18T10:09:42.475Z,11.32
2018-03-18T10:12:11.385Z,9.48
2018-03-18T10:14:40.334Z,5.97
2018-03-18T10:17:09.258Z,7.57
2018-03-18T10:19:38.227Z,10.85
2018-03-18T10:22:07.162Z,9.45
2018-03-18T10:24:36.077Z,8.68
2018-03-18T10:27:05.137Z,12.10
2018-03-18T10:29:34.076Z,8.02
2018-03-18T10:32:02.982Z,4.45
2018-03-18T10:34:31.951Z,11.05
2018-03-18T10:37:00.852Z,8.48
2018-03-18T10:39:29.776Z,11.15
2018-03-18T10:41:58.797Z,10.73
2018-03-18T10:44:27.662Z,8.23
2018-03-18T10:46:56.614Z,12.27
2018-03-18T10:49:25.576Z,17.60
2018-03-18T10:51:54.491Z,31.12
2018-03-18T10:54:23.596Z,25.80
2018-03-18T10:56:52.526Z,34.78
2018-03-18T10:59:21.493Z,35.53
2018-03-18T11:01:55.221Z,31.08
2018-03-18T11:04:24.140Z,31.95
2018-03-18T11:06:53.065Z,30.58
2018-03-18T11:09:22.003Z,12.85
2018-03-18T11:11:50.943Z,18.33
2018-03-18T11:14:19.887Z,9.00
2018-03-18T11:16:48.799Z,13.38
2018-03-18T11:19:17.756Z,13.52
2018-03-18T11:21:46.680Z,6.32
2018-03-18T11:24:15.760Z,8.30
2018-03-18T11:26:44.664Z,8.10
2018-03-18T11:29:13.569Z,5.90
2018-03-18T11:31:42.558Z,6.50
2018-03-18T11:34:17.234Z,5.43
2018-03-18T11:36:46.177Z,8.07
2018-03-18T11:39:15.125Z,10.98
2018-03-18T11:41:44.122Z,10.20
2018-03-18T11:44:13.029Z,9.20
2018-03-18T11:46:41.959Z,9.38
2018-03-18T11:49:10.898Z,5.87
2018-03-18T11:51:39.845Z,7.93
2018-03-18T11:54:08.767Z,10.70
2018-03-18T11:56:37.717Z,8.48
2018-03-18T11:59:06.818Z,13.85
2018-03-18T12:01:35.764Z,13.48
2018-03-18T12:04:04.705Z,7.90
2018-03-18T12:06:34.826Z,8.38
2018-03-18T12:09:03.792Z,7.07
2018-03-18T12:11:32.762Z,10.40
2018-03-18T12:14:01.695Z,9.57
2018-03-18T12:16:30.589Z,4.75
2018-03-18T12:18:59.504Z,9.55
2018-03-18T12:21:28.445Z,9.07
2018-03-18T12:23:57.386Z,13.10
2018-03-18T12:26:26.378Z,12.85
2018-03-18T12:28:55.313Z,11.07
2018-03-18T12:31:24.225Z,8.63
2018-03-18T12:33:53.229Z,6.40
2018-03-18T12:36:22.168Z,7.30
2018-03-18T12:38:51.058Z,8.98
2018-03-18T12:41:19.998Z,11.18
2018-03-18T12:43:49.043Z,9.80
2018-03-18T12:46:17.999Z,10.73
2018-03-18T12:48:46.906Z,6.18
2018-03-18T12:51:15.838Z,9.70
2018-03-18T12:53:44.803Z,7.32
2018-03-18T12:56:13.747Z,9.60
2018-03-18T12:58:42.731Z,9.85
2018-03-18T13:01:11.699Z,15.18
2018-03-18T13:03:40.616Z,15.02
2018-03-18T13:06:09.580Z,11.35
2018-03-18T13:08:38.520Z,5.87
2018-03-18T13:11:07.457Z,8.52
2018-03-18T13:13:36.420Z,8.77
2018-03-18T13:16:05.372Z,13.00
2018-03-18T13:18:34.301Z,8.80
2018-03-18T13:21:03.235Z,7.60
2018-03-18T13:23:32.193Z,10.20
2018-03-18T13:26:01.103Z,11.60
2018-03-18T13:28:30.059Z,7.47
2018-03-18T13:30:59.030Z,8.27
2018-03-18T13:33:27.927Z,9.95
2018-03-18T13:35:56.857Z,11.05
2018-03-18T13:38:25.793Z,8.27
2018-03-18T13:40:54.739Z,6.78
2018-03-18T13:43:24.359Z,8.77
2018-03-18T13:45:53.290Z,9.40
2018-03-18T13:48:22.217Z,7.15
2018-03-18T13:50:51.172Z,11.77
2018-03-18T13:53:20.078Z,12.32
2018-03-18T13:55:48.979Z,10.07
2018-03-18T13:58:17.918Z,5.07
2018-03-18T14:00:46.841Z,11.55
2018-03-18T14:03:15.858Z,7.15
2018-03-18T14:05:44.873Z,9.38
2018-03-18T14:08:13.863Z,11.48
2018-03-18T14:10:42.894Z,7.68
2018-03-18T14:13:11.968Z,8.70
2018-03-18T14:15:41.755Z,10.48
2018-03-18T14:18:10.782Z,14.95
2018-03-18T14:20:39.828Z,6.45
2018-03-18T14:23:08.851Z,8.68
2018-03-18T14:25:37.825Z,8.60
2018-03-18T14:28:06.925Z,11.90
2018-03-18T14:30:35.913Z,9.93
2018-03-18T14:33:04.885Z,7.85
2018-03-18T14:35:33.933Z,8.15
2018-03-18T14:38:02.961Z,8.07
2018-03-18T14:40:31.861Z,9.32
2018-03-18T14:43:00.798Z,7.95
2018-03-18T14:45:29.749Z,6.65
2018-03-18T14:47:58.784Z,10.25
2018-03-18T14:50:27.718Z,9.27
2018-03-18T14:52:56.663Z,9.55
2018-03-18T14:55:25.603Z,10.00
2018-03-18T14:57:54.582Z,9.57
2018-03-18T15:00:23.557Z,8.20
2018-03-18T15:02:52.517Z,9.00
2018-03-18T15:05:21.456Z,11.88
2018-03-18T15:07:50.380Z,13.95
2018-03-18T15:10:19.367Z,13.93
2018-03-18T15:12:48.284Z,10.88
2018-03-18T15:15:17.245Z,11.48
2018-03-18T15:17:46.180Z,14.95
2018-03-18T15:20:15.101Z,11.82
2018-03-18T15:22:44.022Z,16.35
2018-03-18T15:25:12.939Z,8.55
2018-03-18T15:27:41.871Z,7.30
2018-03-18T15:30:10.796Z,10.48
2018-03-18T15:32:39.699Z,10.90
2018-03-18T15:35:08.644Z,8.27
2018-03-18T15:37:37.553Z,8.85
2018-03-18T15:40:06.463Z,7.07
2018-03-18T15:42:35.416Z,9.25
2018-03-18T15:45:04.345Z,14.75
2018-03-18T15:47:33.298Z,12.15
2018-03-18T15:50:02.229Z,14.65
2018-03-18T15:52:31.265Z,10.13
2018-03-18T15:55:00.172Z,10.32
2018-03-18T15:57:29.070Z,8.63
2018-03-18T15:59:58.007Z,7.82
2018-03-18T16:02:26.894Z,6.20
2018-03-18T16:04:55.787Z,9.40
2018-03-18T16:07:24.737Z,7.37
2018-03-18T16:09:53.643Z,7.22
2018-03-18T16:12:22.537Z,6.93
2018-03-18T16:14:51.499Z,11.10
2018-03-18T16:17:20.407Z,10.63
2018-03-18T16:19:49.352Z,5.05
2018-03-18T16:22:18.327Z,10.48
2018-03-18T16:24:47.232Z,10.23
2018-03-18T16:27:16.137Z,10.88
2018-03-18T16:29:50.841Z,6.85
2018-03-18T16:32:19.749Z,11.00
2018-03-18T16:34:48.677Z,8.90
2018-03-18T16:37:18.374Z,11.45
2018-03-18T16:39:47.360Z,12.63
2018-03-18T16:42:16.387Z,8.65
2018-03-18T16:44:45.294Z,12.43
2018-03-18T16:47:14.252Z,12.35
2018-03-18T16:49:43.231Z,11.90
2018-03-18T16:52:12.130Z,13.52
2018-03-18T16:54:41.077Z,6.87
2018-03-18T16:57:09.975Z,7.22
2018-03-18T16:59:38.921Z,10.52
2018-03-18T17:02:07.847Z,8.18
2018-03-18T17:04:36.781Z,11.02
2018-03-18T17:07:05.763Z,13.50
2018-03-18T17:09:34.697Z,5.60
2018-03-18T17:12:03.934Z,12.77
2018-03-18T17:14:32.864Z,12.10
2018-03-18T17:17:01.772Z,8.95
2018-03-18T17:19:30.712Z,15.80
2018-03-18T17:21:59.620Z,9.82
2018-03-18T17:24:28.568Z,12.32
2018-03-18T17:26:57.469Z,12.73
2018-03-18T17:29:26.376Z,13.18
2018-03-18T17:31:55.357Z,9.93
2018-03-18T17:34:24.257Z,8.63
2018-03-18T17:36:53.155Z,13.25
2018-03-18T17:39:22.084Z,9.18
2018-03-18T17:41:51.060Z,10.73
2018-03-18T17:44:25.771Z,6.90
2018-03-18T17:47:00.531Z,13.32
2018-03-18T17:49:35.295Z,10.55
2018-03-18T17:52:09.916Z,10.90
2018-03-18T18:30:36.836Z,15.30
2018-03-18T18:33:05.776Z,10.63
2018-03-18T18:35:34.700Z,6.93
2018-03-18T18:38:03.675Z,15.70
2018-03-18T18:40:32.694Z,12.70
2018-03-18T18:43:01.616Z,17.60
2018-03-18T18:45:31.208Z,18.77
2018-03-18T18:48:00.281Z,11.30
2018-03-18T18:50:29.244Z,12.75
2018-03-18T18:52:58.170Z,8.68
2018-03-18T18:55:27.092Z,18.77
2018-03-18T18:57:56.098Z,18.70
2018-03-18T19:00:25.040Z,14.15
2018-03-18T19:02:54.026Z,18.40
2018-03-18T19:05:22.961Z,10.90
2018-03-18T19:07:51.949Z,12.48
2018-03-18T19:10:21.052Z,11.32
2018-03-18T19:12:50.005Z,15.55
2018-03-18T19:15:19.357Z,15.30
2018-03-18T19:17:48.314Z,20.75
2018-03-18T19:20:17.596Z,16.62
2018-03-18T19:22:46.575Z,15.02
2018-03-18T19:25:16.608Z,9.30
2018-03-18T19:27:45.593Z,8.98
2018-03-18T19:30:14.525Z,15.30
2018-03-18T19:32:43.555Z,10.25
2018-03-18T19:35:12.472Z,12.77
2018-03-18T19:37:41.399Z,14.32
2018-03-18T19:40:10.369Z,14.73
2018-03-18T19:42:39.316Z,14.35
2018-03-18T19:45:08.384Z,11.50
2018-03-18T19:47:37.366Z,16.58
2018-03-18T19:50:06.400Z,17.42
2018-03-18T19:52:35.400Z,22.67
2018-03-18T19:55:04.358Z,12.98
2018-03-18T19:57:34.260Z,19.23
2018-03-18T20:00:03.184Z,12.15
2018-03-18T20:02:32.142Z,19.75
2018-03-18T20:05:01.145Z,15.10
2018-03-18T20:07:30.132Z,26.02
2018-03-18T20:09:59.059Z,22.73
2018-03-18T20:12:28.043Z,12.88
2018-03-18T20:14:57.107Z,12.52
2018-03-18T20:17:26.306Z,22.60
2018-03-18T20:19:55.319Z,26.23
2018-03-18T20:22:24.409Z,18.17
2018-03-18T20:24:53.476Z,14.68
2018-03-18T20:27:22.446Z,27.02
2018-03-18T20:29:51.919Z,18.37
2018-03-18T20:32:20.939Z,37.08
2018-03-18T20:34:50.008Z,55.92
2018-03-18T20:37:19.099Z,59.90
2018-03-18T20:39:48.154Z,38.28
2018-03-18T20:42:17.104Z,81.60
2018-03-18T20:44:46.236Z,82.43
2018-03-18T20:47:15.953Z,62.95
2018-03-18T20:49:45.103Z,28.00
2018-03-18T20:52:14.159Z,74.25
2018-03-18T20:54:43.078Z,68.43
2018-03-18T20:57:12.038Z,38.30
2018-03-18T20:59:41.009Z,28.40
2018-03-18T21:02:09.990Z,19.77
2018-03-18T21:04:39.868Z,25.83
2018-03-18T21:07:08.861Z,19.35
2018-03-18T21:09:37.808Z,17.83
2018-03-18T21:12:06.831Z,19.48
2018-03-18T21:14:35.822Z,22.10
2018-03-18T21:17:04.796Z,21.90
2018-03-18T21:19:33.785Z,16.15
2018-03-18T21:22:03.882Z,29.73
2018-03-18T21:24:32.965Z,16.77
2018-03-18T21:27:01.903Z,13.23
2018-03-18T21:29:30.836Z,16.70
2018-03-18T21:31:59.790Z,21.20
2018-03-18T21:34:39.297Z,24.55
2018-03-18T21:37:08.279Z,20.55
2018-03-18T21:39:37.243Z,19.70
2018-03-18T21:42:06.710Z,11.82
2018-03-18T21:44:35.982Z,12.75
2018-03-18T21:47:04.950Z,10.77
2018-03-18T21:49:33.975Z,15.88
2018-03-18T21:52:03.163Z,13.50
2018-03-18T21:54:32.084Z,22.73
2018-03-18T21:57:01.367Z,14.13
2018-03-18T21:59:30.555Z,19.27
2018-03-18T22:01:59.577Z,13.55
2018-03-18T22:04:28.497Z,11.77
2018-03-18T22:06:57.428Z,21.37
2018-03-18T22:09:26.414Z,14.87
2018-03-18T22:11:55.642Z,12.93
2018-03-18T22:14:24.586Z,8.30
2018-03-18T22:16:53.502Z,9.30
2018-03-18T22:19:22.460Z,14.82
2018-03-18T22:21:51.484Z,10.68
2018-03-18T22:24:20.415Z,11.30
2018-03-18T22:26:49.403Z,18.58
2018-03-18T22:29:18.495Z,16.73
2018-03-18T22:31:48.136Z,10.20
2018-03-18T22:34:17.090Z,10.25
2018-03-18T22:36:46.024Z,15.93
2018-03-18T22:39:15.010Z,10.75
2018-03-18T22:44:34.205Z,13.88
2018-03-18T22:47:03.151Z,10.57
2018-03-18T22:49:32.191Z,11.82
2018-03-18T22:52:01.166Z,18.33
2018-03-18T22:54:30.106Z,13.00
2018-03-18T22:56:59.106Z,6.55
2018-03-18T22:59:28.115Z,11.88
2018-03-18T23:01:57.053Z,14.48
2018-03-18T23:04:26.095Z,10.35
2018-03-18T23:06:55.156Z,13.02
2018-03-18T23:09:24.095Z,11.77
2018-03-18T23:11:53.298Z,13.88
2018-03-18T23:14:22.250Z,14.98
2018-03-18T23:16:51.183Z,14.55
2018-03-18T23:19:20.173Z,8.68
2018-03-18T23:21:49.405Z,12.57
2018-03-18T23:24:18.530Z,12.45
2018-03-18T23:26:48.001Z,12.85
2018-03-18T23:29:17.200Z,6.47
2018-03-18T23:31:46.361Z,12.57
2018-03-18T23:34:15.325Z,11.77
2018-03-18T23:36:44.299Z,14.25
2018-03-18T23:39:13.291Z,13.35
2018-03-18T23:41:42.514Z,9.60
2018-03-18T23:44:11.450Z,14.45
2018-03-18T23:46:40.664Z,9.13
2018-03-18T23:49:09.573Z,17.27
2018-03-18T23:51:38.542Z,9.05
2018-03-18T23:54:07.455Z,14.52
2018-03-18T23:56:36.370Z,11.32
2018-03-18T23:59:05.352Z,16.98
